Time,TemperatureF,DewpointF,PressureIn,WindDirection,WindDirectionDegrees,WindSpeedMPH,WindSpeedGustMPH,Humidity,HourlyPrecipIn,Conditions,Clouds,dailyrainin,SoftwareType,DateUTC
2013-09-09 00:01:00,43.3,40.1,28.43,North,0,1.0,3.0,88,0.00,,,0.01,meteohub,2013-09-09 04:01:00,
2013-09-09 00:02:00,43.3,40.1,28.43,North,0,0.0,3.0,88,0.00,,,0.01,meteohub,2013-09-09 04:02:00,
2013-09-09 00:03:00,43.3,40.1,28.43,North,0,2.0,3.0,88,0.00,,,0.01,meteohub,2013-09-09 04:03:00,
2013-09-09 00:04:00,43.3,40.1,28.43,North,0,2.0,3.0,88,0.00,,,0.01,meteohub,2013-09-09 04:04:00,
2013-09-09 00:07:00,43.2,39.9,28.43,NE,45,1.0,3.0,88,0.00,,,0.00,meteohub,2013-09-09 04:07:00,
2013-09-09 00:09:00,43.0,39.7,28.43,SW,225,2.0,3.0,88,0.00,,,0.00,meteohub,2013-09-09 04:09:00,
2013-09-09 00:14:00,42.8,39.6,28.43,South,180,2.0,3.0,88,0.00,,,0.00,meteohub,2013-09-09 04:14:00,
2013-09-09 00:19:00,42.6,39.6,28.43,NW,315,2.0,2.0,89,0.00,,,0.00,meteohub,2013-09-09 04:19:00,
2013-09-09 00:24:00,42.4,39.7,28.43,South,180,2.0,2.0,90,0.00,,,0.00,meteohub,2013-09-09 04:24:00,
2013-09-09 00:29:00,42.1,39.4,28.44,NE,45,2.0,2.0,90,0.00,,,0.00,meteohub,2013-09-09 04:29:00,
2013-09-09 00:34:00,42.1,39.4,28.44,NE,45,0.0,2.0,90,0.00,,,0.00,meteohub,2013-09-09 04:34:00,
2013-09-09 00:39:00,42.1,39.4,28.43,West,270,1.0,2.0,90,0.00,,,0.00,meteohub,2013-09-09 04:39:00,
2013-09-09 00:44:00,41.9,39.4,28.43,East,90,1.0,2.0,91,0.00,,,0.00,meteohub,2013-09-09 04:44:00,
2013-09-09 00:50:00,41.7,39.2,28.44,NE,45,0.0,2.0,91,0.00,,,0.00,meteohub,2013-09-09 04:50:00,
2013-09-09 00:55:00,41.5,39.2,28.43,West,270,0.0,2.0,91,0.00,,,0.00,meteohub,2013-09-09 04:55:00,
2013-09-09 01:02:00,41.4,39.2,28.43,NE,45,1.0,2.0,92,0.00,,,0.00,meteohub,2013-09-09 05:02:00,
2013-09-09 01:07:00,41.2,39.0,28.44,South,180,2.0,2.0,92,0.00,,,0.00,meteohub,2013-09-09 05:07:00,
2013-09-09 01:12:00,41.0,38.8,28.44,South,180,0.0,2.0,92,0.00,,,0.00,meteohub,2013-09-09 05:12:00,
2013-09-09 01:17:00,41.0,38.8,28.44,South,180,1.0,2.0,92,0.00,,,0.00,meteohub,2013-09-09 05:17:00,
2013-09-09 01:22:00,40.8,39.0,28.44,SW,225,1.0,2.0,93,0.00,,,0.00,meteohub,2013-09-09 05:22:00,
2013-09-09 01:28:00,40.6,39.0,28.44,SE,135,2.0,2.0,94,0.00,,,0.00,meteohub,2013-09-09 05:28:00,
2013-09-09 01:33:00,40.6,39.0,28.44,West,270,2.0,2.0,94,0.00,,,0.00,meteohub,2013-09-09 05:33:00,
2013-09-09 01:38:00,40.5,38.8,28.44,NE,45,2.0,2.0,94,0.00,,,0.00,meteohub,2013-09-09 05:38:00,
2013-09-09 01:43:00,40.3,38.7,28.45,West,270,0.0,2.0,94,0.00,,,0.00,meteohub,2013-09-09 05:43:00,
2013-09-09 01:48:00,40.1,38.5,28.45,SW,225,0.0,2.0,94,0.00,,,0.00,meteohub,2013-09-09 05:48:00,
2013-09-09 01:53:00,39.9,38.3,28.45,NE,45,0.0,2.0,94,0.00,,,0.00,meteohub,2013-09-09 05:53:00,
2013-09-09 01:58:00,39.7,38.1,28.45,South,180,2.0,2.0,94,0.00,,,0.00,meteohub,2013-09-09 05:58:00,
2013-09-09 02:03:00,39.7,38.5,28.45,NE,45,0.0,2.0,95,0.00,,,0.00,meteohub,2013-09-09 06:03:00,
2013-09-09 02:08:00,39.7,38.5,28.44,NW,315,0.0,2.0,95,0.00,,,0.00,meteohub,2013-09-09 06:08:00,
2013-09-09 02:13:00,39.4,38.1,28.45,SE,135,0.0,2.0,95,0.00,,,0.00,meteohub,2013-09-09 06:13:00,
2013-09-09 02:18:00,39.2,37.6,28.44,SE,135,0.0,0.0,94,0.00,,,0.00,meteohub,2013-09-09 06:18:00,
2013-09-09 02:24:00,39.0,37.9,28.45,West,270,0.0,0.0,96,0.00,,,0.00,meteohub,2013-09-09 06:24:00,
2013-09-09 02:29:00,39.0,37.9,28.45,SE,135,0.0,0.0,96,0.00,,,0.00,meteohub,2013-09-09 06:29:00,
2013-09-09 02:34:00,39.0,37.9,28.45,West,270,0.0,0.0,96,0.00,,,0.00,meteohub,2013-09-09 06:34:00,
2013-09-09 02:39:00,38.8,37.8,28.45,East,90,2.0,0.0,96,0.00,,,0.00,meteohub,2013-09-09 06:39:00,
2013-09-09 02:44:00,38.7,37.6,28.45,West,270,2.0,2.0,96,0.00,,,0.00,meteohub,2013-09-09 06:44:00,
2013-09-09 02:49:00,38.5,37.4,28.45,West,270,0.0,2.0,96,0.00,,,0.00,meteohub,2013-09-09 06:49:00,
2013-09-09 02:54:00,38.5,37.4,28.45,SE,135,2.0,2.0,96,0.00,,,0.00,meteohub,2013-09-09 06:54:00,
2013-09-09 02:59:00,38.7,37.9,28.45,West,270,2.0,2.0,97,0.00,,,0.00,meteohub,2013-09-09 06:59:00,
2013-09-09 03:04:00,38.5,37.8,28.46,East,90,2.0,2.0,97,0.00,,,0.00,meteohub,2013-09-09 07:04:00,
2013-09-09 03:09:00,38.5,37.8,28.45,NW,315,2.0,2.0,97,0.00,,,0.00,meteohub,2013-09-09 07:09:00,
2013-09-09 03:14:00,38.5,37.8,28.45,South,180,2.0,2.0,97,0.00,,,0.00,meteohub,2013-09-09 07:14:00,
2013-09-09 03:20:00,38.3,37.6,28.45,SE,135,0.0,2.0,97,0.00,,,0.00,meteohub,2013-09-09 07:20:00,
2013-09-09 03:25:00,38.1,37.4,28.45,NW,315,0.0,2.0,97,0.00,,,0.00,meteohub,2013-09-09 07:25:00,
2013-09-09 03:30:00,37.9,37.2,28.45,SE,135,2.0,2.0,97,0.00,,,0.00,meteohub,2013-09-09 07:30:00,
2013-09-09 03:35:00,37.9,37.2,28.46,SW,225,2.0,2.0,97,0.00,,,0.00,meteohub,2013-09-09 07:35:00,
2013-09-09 03:40:00,37.8,37.0,28.46,ESE,113,2.0,2.0,97,0.00,,,0.00,meteohub,2013-09-09 07:40:00,
2013-09-09 03:45:00,37.8,37.0,28.46,South,180,2.0,3.0,97,0.00,,,0.00,meteohub,2013-09-09 07:45:00,
2013-09-09 03:50:00,37.6,36.9,28.46,SW,225,1.0,3.0,97,0.00,,,0.00,meteohub,2013-09-09 07:50:00,
2013-09-09 03:55:00,37.4,36.7,28.46,South,180,0.0,3.0,97,0.00,,,0.00,meteohub,2013-09-09 07:55:00,
2013-09-09 04:00:00,37.2,35.4,28.47,NW,315,1.0,2.0,93,0.00,,,0.00,meteohub,2013-09-09 08:00:00,
2013-09-09 04:05:00,37.2,35.4,28.47,NW,315,0.0,2.0,93,0.00,,,0.00,meteohub,2013-09-09 08:05:00,
2013-09-09 04:10:00,37.0,35.2,28.47,SW,225,0.0,2.0,93,0.00,,,0.00,meteohub,2013-09-09 08:10:00,
2013-09-09 04:15:00,36.9,35.1,28.48,SW,225,0.0,2.0,93,0.00,,,0.00,meteohub,2013-09-09 08:15:00,
2013-09-09 04:20:00,37.0,35.2,28.48,SW,225,0.0,1.0,93,0.00,,,0.00,meteohub,2013-09-09 08:20:00,
2013-09-09 04:25:00,37.0,35.4,28.48,SW,225,0.0,1.0,94,0.00,,,0.00,meteohub,2013-09-09 08:25:00,
2013-09-09 04:31:00,37.0,35.4,28.48,SE,135,0.0,1.0,94,0.00,,,0.00,meteohub,2013-09-09 08:31:00,
2013-09-09 04:36:00,37.0,35.4,28.48,SE,135,3.0,3.0,94,0.00,,,0.00,meteohub,2013-09-09 08:36:00,
2013-09-09 04:41:00,36.9,35.2,28.49,SSW,203,3.0,4.0,94,0.00,,,0.00,meteohub,2013-09-09 08:41:00,
2013-09-09 04:46:00,36.7,35.1,28.49,SSW,203,2.0,4.0,94,0.00,,,0.00,meteohub,2013-09-09 08:46:00,
2013-09-09 04:51:00,36.5,34.9,28.49,SE,135,0.0,4.0,94,0.00,,,0.00,meteohub,2013-09-09 08:51:00,
2013-09-09 04:56:00,36.3,34.7,28.49,West,270,0.0,3.0,94,0.00,,,0.00,meteohub,2013-09-09 08:56:00,
2013-09-09 05:01:00,36.1,34.5,28.49,West,270,0.0,3.0,94,0.00,,,0.00,meteohub,2013-09-09 09:01:00,
2013-09-09 05:06:00,36.1,34.5,28.48,ESE,113,0.0,2.0,94,0.00,,,0.00,meteohub,2013-09-09 09:06:00,
2013-09-09 05:11:00,36.1,34.5,28.48,SE,135,1.0,2.0,94,0.00,,,0.00,meteohub,2013-09-09 09:11:00,
2013-09-09 05:16:00,36.1,34.5,28.49,SE,135,1.0,2.0,94,0.00,,,0.00,meteohub,2013-09-09 09:16:00,
2013-09-09 05:21:00,36.1,34.5,28.49,South,180,2.0,2.0,94,0.00,,,0.00,meteohub,2013-09-09 09:21:00,
2013-09-09 05:26:00,36.0,34.3,28.49,SE,135,2.0,3.0,94,0.00,,,0.00,meteohub,2013-09-09 09:26:00,
2013-09-09 05:31:00,36.0,34.3,28.50,South,180,2.0,3.0,94,0.00,,,0.00,meteohub,2013-09-09 09:31:00,
2013-09-09 05:36:00,35.8,34.2,28.50,South,180,0.0,3.0,94,0.00,,,0.00,meteohub,2013-09-09 09:36:00,
2013-09-09 05:41:00,35.6,34.0,28.50,South,180,0.0,3.0,94,0.00,,,0.00,meteohub,2013-09-09 09:41:00,
2013-09-09 05:47:00,35.4,34.2,28.51,SW,225,0.0,2.0,95,0.00,,,0.00,meteohub,2013-09-09 09:47:00,
2013-09-09 05:52:00,35.4,34.2,28.51,SE,135,0.0,0.0,95,0.00,,,0.00,meteohub,2013-09-09 09:52:00,
2013-09-09 05:57:00,35.4,34.2,28.50,SE,135,0.0,0.0,95,0.00,,,0.00,meteohub,2013-09-09 09:57:00,
2013-09-09 06:02:00,35.4,34.2,28.51,SE,135,0.0,0.0,95,0.00,,,0.00,meteohub,2013-09-09 10:02:00,
2013-09-09 06:07:00,35.2,34.0,28.51,NW,315,0.0,0.0,95,0.00,,,0.00,meteohub,2013-09-09 10:07:00,
2013-09-09 06:12:00,35.1,33.8,28.51,NW,315,0.0,0.0,95,0.00,,,0.00,meteohub,2013-09-09 10:12:00,
2013-09-09 06:17:00,35.1,33.8,28.52,South,180,2.0,0.0,95,0.00,,,0.00,meteohub,2013-09-09 10:17:00,
2013-09-09 06:22:00,35.2,34.2,28.52,SE,135,2.0,2.0,96,0.00,,,0.00,meteohub,2013-09-09 10:22:00,
2013-09-09 06:27:00,35.4,34.3,28.52,SSE,158,2.0,2.0,96,0.00,,,0.00,meteohub,2013-09-09 10:27:00,
2013-09-09 06:32:00,35.2,34.2,28.51,East,90,1.0,2.0,96,0.00,,,0.00,meteohub,2013-09-09 10:32:00,
2013-09-09 06:37:00,35.2,34.2,28.51,South,180,2.0,3.0,96,0.00,,,0.00,meteohub,2013-09-09 10:37:00,
2013-09-09 06:42:00,35.1,34.0,28.51,South,180,0.0,3.0,96,0.00,,,0.00,meteohub,2013-09-09 10:42:00,
2013-09-09 06:47:00,35.1,34.0,28.51,SE,135,2.0,3.0,96,0.00,,,0.00,meteohub,2013-09-09 10:47:00,
2013-09-09 06:52:00,35.1,34.0,28.52,SE,135,2.0,3.0,96,0.00,,,0.00,meteohub,2013-09-09 10:52:00,